createdAt,value
2018-06-04T00:18:42.945Z,48.8
2018-06-04T01:31:34.572Z,46.6
2018-06-04T01:41:49.066Z,37.2
2018-06-04T02:15:55.726Z,40.9
2018-06-04T02:26:41.305Z,51.9
2018-06-04T02:38:31.791Z,55.8
2018-06-04T02:48:49.136Z,38.2
2018-06-04T02:59:34.259Z,67.4
2018-06-04T03:25:29.815Z,38.8
2018-06-04T03:36:16.072Z,55.9
2018-06-04T03:46:30.496Z,44.5
2018-06-04T03:56:44.989Z,40.3
2018-06-04T04:10:00.219Z,66.1
2018-06-04T04:20:14.917Z,137.5
2018-06-04T04:30:41.933Z,48.4
2018-06-04T04:41:27.852Z,66.3
2018-06-04T04:52:12.736Z,61.2
2018-06-04T05:03:03.434Z,78.0
2018-06-04T05:13:17.482Z,112.1
2018-06-04T05:23:31.940Z,93.9
2018-06-04T05:34:16.661Z,116.1
2018-06-04T05:44:28.885Z,71.4
2018-06-04T05:54:42.952Z,67.7
2018-06-04T06:04:54.169Z,76.5
2018-06-04T06:15:08.535Z,73.2
2018-06-04T06:25:53.736Z,74.6
2018-06-04T06:36:07.243Z,64.6
2018-06-04T06:46:21.703Z,52.4
2018-06-04T06:57:51.132Z,74.8
2018-06-04T07:09:02.433Z,60.5
2018-06-04T07:29:52.280Z,63.4
2018-06-04T07:40:47.539Z,63.8
2018-06-04T08:02:32.297Z,49.9
2018-06-04T08:13:55.844Z,57.9
2018-06-04T08:24:40.002Z,58.7
2018-06-04T08:35:24.522Z,53.0
2018-06-04T08:45:57.640Z,59.3
2018-06-04T08:56:26.245Z,49.9
2018-06-04T09:06:42.634Z,51.5
2018-06-04T09:17:28.063Z,51.6
2018-06-04T09:27:55.708Z,51.2
2018-06-04T09:38:09.657Z,47.9
2018-06-04T09:48:28.680Z,46.8
2018-06-04T09:58:46.360Z,46.8
2018-06-04T10:09:00.586Z,46.5
2018-06-04T10:19:45.132Z,59.5
2018-06-04T10:30:30.481Z,48.8
2018-06-04T10:40:45.359Z,52.6
2018-06-04T10:51:07.608Z,52.0
2018-06-04T11:01:30.938Z,61.3
2018-06-04T11:11:46.838Z,44.3
2018-06-04T11:22:49.724Z,43.6
2018-06-04T11:33:45.024Z,48.8
2018-06-04T11:44:09.946Z,42.7
2018-06-04T12:31:18.936Z,45.4
2018-06-04T12:41:36.921Z,37.5
2018-06-04T12:52:40.558Z,35.7
2018-06-04T13:03:26.847Z,32.2
2018-06-04T13:13:38.381Z,35.0
2018-06-04T13:23:57.954Z,32.5
2018-06-04T13:34:12.879Z,31.3
2018-06-04T13:44:26.928Z,28.4
2018-06-04T13:55:12.687Z,37.3
2018-06-04T14:05:38.844Z,27.0
2018-06-04T14:15:53.106Z,27.2
2018-06-04T14:26:40.775Z,26.9
2018-06-04T14:36:54.368Z,30.3
2018-06-04T14:47:10.721Z,26.7
2018-06-04T14:57:24.147Z,26.3
2018-06-04T15:07:38.318Z,32.3
2018-06-04T15:28:06.800Z,29.6
2018-06-04T15:38:20.856Z,27.9
2018-06-04T15:48:35.561Z,32.1
2018-06-04T15:58:50.713Z,28.5
2018-06-04T16:09:46.867Z,28.0
2018-06-04T16:21:16.512Z,32.6
2018-06-04T16:31:30.793Z,29.7
2018-06-04T16:42:26.202Z,29.8
2018-06-04T16:53:12.460Z,34.1
2018-06-04T17:04:03.355Z,27.4
2018-06-04T17:14:48.694Z,34.2
2018-06-04T17:25:03.398Z,29.7
2018-06-04T17:35:19.068Z,40.0
2018-06-04T17:46:02.952Z,29.6
2018-06-04T17:56:47.914Z,27.9
2018-06-04T18:07:33.970Z,30.7
2018-06-04T18:18:24.186Z,30.2
2018-06-04T18:28:38.569Z,29.8
2018-06-04T18:38:52.926Z,31.8
2018-06-04T18:49:07.773Z,31.1
2018-06-04T19:00:04.600Z,31.4
2018-06-04T19:10:18.264Z,32.6
2018-06-04T19:21:04.071Z,33.9
2018-06-04T19:31:49.059Z,35.3
2018-06-04T19:42:42.752Z,31.9
2018-06-04T19:53:23.255Z,31.7
2018-06-04T20:03:43.760Z,31.5
2018-06-04T20:13:58.158Z,31.1
2018-06-04T20:24:46.713Z,35.5
2018-06-04T20:35:01.287Z,35.0
2018-06-04T21:07:07.117Z,36.9
2018-06-04T21:17:31.626Z,36.0
2018-06-04T21:40:01.942Z,36.4
2018-06-04T21:51:30.967Z,40.0
2018-06-04T22:01:46.912Z,37.2
2018-06-04T22:24:05.414Z,34.9
2018-06-04T22:35:33.390Z,37.3
2018-06-04T22:45:48.011Z,42.8
2018-06-04T22:56:02.529Z,40.6
2018-06-04T23:06:50.111Z,47.1
2018-06-04T23:17:34.831Z,41.7
2018-06-04T23:39:36.801Z,46.9
2018-06-04T23:49:51.173Z,46.0
